Knightsen, California
Current Conditions -  °F | °C
As of 8:53 AM on Friday 31 Oct 2014 (Local Time) from KLVK Reporting Station
Broken Clouds Broken Clouds  
Wind Chill: 63°   Ceiling: 11000
Heat Index: 63°   Visibility: 10mi
Dew Point: 53°   Wind: 7mph
Humidity: 70%   Direction: 240°WSW
Pressure: 29.87"   Gusts: NA
Location:  37.97°N, 121.67°W
Report Text: KLVK 311553Z 24006KT 10SM FEW038 BKN110 17/12 A2987 RMK AO2 SLP111 T01720117
Loading
Personal Weather Stations






























Interactive Weather Map
Tropical Storm Tracking
New forecast layout! Learn more

10-Day Weather Forecast

Advertisements
Track Severe Weather on mobile